sensor_id;sensor_type;location;lat;lon;timestamp;P1;durP1;ratioP1;P2;durP2;ratioP2
73452;SDS011;61687;56.232;43.854;2023-02-01T00:02:02;25.42;;;10.90;;
73452;SDS011;61687;56.232;43.854;2023-02-01T00:04:28;23.98;;;10.75;;
73452;SDS011;61687;56.232;43.854;2023-02-01T00:06:54;26.02;;;10.93;;
73452;SDS011;61687;56.232;43.854;2023-02-01T00:09:20;25.95;;;11.25;;
73452;SDS011;61687;56.232;43.854;2023-02-01T00:11:46;25.70;;;10.87;;
73452;SDS011;61687;56.232;43.854;2023-02-01T00:14:12;29.50;;;12.23;;
73452;SDS011;61687;56.232;43.854;2023-02-01T00:16:38;25.52;;;11.07;;
73452;SDS011;61687;56.232;43.854;2023-02-01T00:19:05;24.77;;;9.95;;
73452;SDS011;61687;56.232;43.854;2023-02-01T00:21:40;23.83;;;10.63;;
73452;SDS011;61687;56.232;43.854;2023-02-01T00:24:07;24.63;;;10.70;;
73452;SDS011;61687;56.232;43.854;2023-02-01T00:29:03;24.25;;;9.88;;
73452;SDS011;61687;56.232;43.854;2023-02-01T00:31:31;23.08;;;9.95;;
73452;SDS011;61687;56.232;43.854;2023-02-01T00:33:57;26.65;;;11.32;;
73452;SDS011;61687;56.232;43.854;2023-02-01T00:36:23;25.13;;;10.13;;
73452;SDS011;61687;56.232;43.854;2023-02-01T00:38:49;25.52;;;11.13;;
73452;SDS011;61687;56.232;43.854;2023-02-01T00:41:16;26.80;;;10.73;;
73452;SDS011;61687;56.232;43.854;2023-02-01T00:43:43;27.35;;;11.07;;
73452;SDS011;61687;56.232;43.854;2023-02-01T00:46:11;26.87;;;11.20;;
73452;SDS011;61687;56.232;43.854;2023-02-01T00:48:37;24.20;;;10.15;;
73452;SDS011;61687;56.232;43.854;2023-02-01T00:51:08;27.13;;;11.85;;
73452;SDS011;61687;56.232;43.854;2023-02-01T00:53:39;27.45;;;11.18;;
73452;SDS011;61687;56.232;43.854;2023-02-01T00:56:05;26.70;;;11.75;;
73452;SDS011;61687;56.232;43.854;2023-02-01T00:58:32;27.63;;;11.63;;
73452;SDS011;61687;56.232;43.854;2023-02-01T01:01:02;28.35;;;11.85;;
73452;SDS011;61687;56.232;43.854;2023-02-01T01:03:30;25.85;;;10.93;;
73452;SDS011;61687;56.232;43.854;2023-02-01T01:05:59;29.30;;;11.55;;
73452;SDS011;61687;56.232;43.854;2023-02-01T01:08:26;27.35;;;11.63;;
73452;SDS011;61687;56.232;43.854;2023-02-01T01:10:52;29.43;;;12.20;;
73452;SDS011;61687;56.232;43.854;2023-02-01T01:13:19;26.40;;;11.68;;
73452;SDS011;61687;56.232;43.854;2023-02-01T01:15:45;28.30;;;12.43;;
73452;SDS011;61687;56.232;43.854;2023-02-01T01:18:11;30.38;;;11.98;;
73452;SDS011;61687;56.232;43.854;2023-02-01T01:20:38;30.92;;;11.07;;
73452;SDS011;61687;56.232;43.854;2023-02-01T01:23:06;28.27;;;12.65;;
73452;SDS011;61687;56.232;43.854;2023-02-01T01:25:38;27.17;;;11.40;;
73452;SDS011;61687;56.232;43.854;2023-02-01T01:28:05;26.55;;;11.77;;
73452;SDS011;61687;56.232;43.854;2023-02-01T01:30:31;27.13;;;11.43;;
73452;SDS011;61687;56.232;43.854;2023-02-01T01:32:58;29.70;;;11.40;;
73452;SDS011;61687;56.232;43.854;2023-02-01T01:35:24;25.67;;;11.07;;
73452;SDS011;61687;56.232;43.854;2023-02-01T01:37:50;28.45;;;11.95;;
73452;SDS011;61687;56.232;43.854;2023-02-01T01:40:16;30.17;;;11.75;;
73452;SDS011;61687;56.232;43.854;2023-02-01T01:42:43;29.48;;;11.73;;
73452;SDS011;61687;56.232;43.854;2023-02-01T01:48:07;29.70;;;11.20;;
73452;SDS011;61687;56.232;43.854;2023-02-01T01:50:56;32.03;;;12.35;;
73452;SDS011;61687;56.232;43.854;2023-02-01T01:53:28;28.77;;;11.82;;
73452;SDS011;61687;56.232;43.854;2023-02-01T01:55:59;32.03;;;12.40;;
73452;SDS011;61687;56.232;43.854;2023-02-01T01:58:27;31.63;;;11.80;;
73452;SDS011;61687;56.232;43.854;2023-02-01T02:00:54;27.02;;;11.57;;
73452;SDS011;61687;56.232;43.854;2023-02-01T02:03:25;32.90;;;12.48;;
73452;SDS011;61687;56.232;43.854;2023-02-01T02:05:58;30.38;;;12.32;;
73452;SDS011;61687;56.232;43.854;2023-02-01T02:08:26;27.42;;;11.27;;
73452;SDS011;61687;56.232;43.854;2023-02-01T02:10:53;31.60;;;12.85;;
73452;SDS011;61687;56.232;43.854;2023-02-01T02:13:47;32.60;;;12.27;;
73452;SDS011;61687;56.232;43.854;2023-02-01T02:16:19;32.65;;;11.82;;
73452;SDS011;61687;56.232;43.854;2023-02-01T02:19:27;29.80;;;12.50;;
73452;SDS011;61687;56.232;43.854;2023-02-01T02:42:01;26.50;;;11.82;;
73452;SDS011;61687;56.232;43.854;2023-02-01T02:44:52;30.52;;;12.80;;
73452;SDS011;61687;56.232;43.854;2023-02-01T02:47:44;25.63;;;12.00;;
73452;SDS011;61687;56.232;43.854;2023-02-01T02:50:33;29.73;;;12.18;;
73452;SDS011;61687;56.232;43.854;2023-02-01T02:56:37;30.45;;;12.15;;
73452;SDS011;61687;56.232;43.854;2023-02-01T02:59:24;31.40;;;13.05;;
73452;SDS011;61687;56.232;43.854;2023-02-01T03:02:11;32.92;;;12.98;;
73452;SDS011;61687;56.232;43.854;2023-02-01T03:04:57;35.90;;;13.00;;
73452;SDS011;61687;56.232;43.854;2023-02-01T03:13:00;31.80;;;12.93;;
73452;SDS011;61687;56.232;43.854;2023-02-01T03:15:38;35.55;;;13.70;;
73452;SDS011;61687;56.232;43.854;2023-02-01T03:18:15;31.52;;;12.80;;
73452;SDS011;61687;56.232;43.854;2023-02-01T03:20:47;29.52;;;13.50;;
73452;SDS011;61687;56.232;43.854;2023-02-01T03:23:18;31.00;;;12.50;;
73452;SDS011;61687;56.232;43.854;2023-02-01T03:25:48;30.90;;;13.13;;
73452;SDS011;61687;56.232;43.854;2023-02-01T03:28:17;35.97;;;13.85;;
73452;SDS011;61687;56.232;43.854;2023-02-01T03:30:47;28.40;;;12.68;;
73452;SDS011;61687;56.232;43.854;2023-02-01T03:33:16;35.42;;;12.95;;
73452;SDS011;61687;56.232;43.854;2023-02-01T03:41:19;34.15;;;13.65;;
73452;SDS011;61687;56.232;43.854;2023-02-01T03:43:57;33.13;;;13.57;;
73452;SDS011;61687;56.232;43.854;2023-02-01T03:46:52;30.27;;;13.38;;
73452;SDS011;61687;56.232;43.854;2023-02-01T03:49:24;34.72;;;13.30;;
73452;SDS011;61687;56.232;43.854;2023-02-01T03:51:54;34.13;;;14.10;;
73452;SDS011;61687;56.232;43.854;2023-02-01T03:54:23;35.17;;;14.13;;
73452;SDS011;61687;56.232;43.854;2023-02-01T03:56:51;35.05;;;13.27;;
73452;SDS011;61687;56.232;43.854;2023-02-01T03:59:20;35.90;;;13.10;;
73452;SDS011;61687;56.232;43.854;2023-02-01T04:01:47;31.55;;;12.43;;
73452;SDS011;61687;56.232;43.854;2023-02-01T04:04:13;32.47;;;13.43;;
73452;SDS011;61687;56.232;43.854;2023-02-01T04:06:49;33.20;;;12.93;;
73452;SDS011;61687;56.232;43.854;2023-02-01T04:09:16;31.58;;;12.80;;
73452;SDS011;61687;56.232;43.854;2023-02-01T04:11:42;34.45;;;12.90;;
73452;SDS011;61687;56.232;43.854;2023-02-01T04:14:09;33.17;;;12.90;;
73452;SDS011;61687;56.232;43.854;2023-02-01T04:16:35;32.07;;;12.53;;
73452;SDS011;61687;56.232;43.854;2023-02-01T04:19:01;34.72;;;12.88;;
73452;SDS011;61687;56.232;43.854;2023-02-01T04:21:27;33.15;;;13.55;;
73452;SDS011;61687;56.232;43.854;2023-02-01T04:23:54;32.85;;;13.02;;
73452;SDS011;61687;56.232;43.854;2023-02-01T04:26:20;34.08;;;13.68;;
73452;SDS011;61687;56.232;43.854;2023-02-01T04:28:47;28.23;;;12.27;;
73452;SDS011;61687;56.232;43.854;2023-02-01T04:31:14;35.30;;;12.88;;
73452;SDS011;61687;56.232;43.854;2023-02-01T04:33:40;29.35;;;13.02;;
73452;SDS011;61687;56.232;43.854;2023-02-01T04:36:06;35.38;;;13.43;;
73452;SDS011;61687;56.232;43.854;2023-02-01T04:38:32;38.15;;;14.07;;
73452;SDS011;61687;56.232;43.854;2023-02-01T04:40:59;28.10;;;11.40;;
73452;SDS011;61687;56.232;43.854;2023-02-01T04:43:24;32.97;;;13.15;;
73452;SDS011;61687;56.232;43.854;2023-02-01T04:45:51;34.08;;;14.20;;
73452;SDS011;61687;56.232;43.854;2023-02-01T04:48:17;34.03;;;13.87;;
73452;SDS011;61687;56.232;43.854;2023-02-01T04:50:44;33.85;;;14.07;;
73452;SDS011;61687;56.232;43.854;2023-02-01T04:53:13;29.42;;;12.52;;
73452;SDS011;61687;56.232;43.854;2023-02-01T04:55:40;33.85;;;12.95;;
73452;SDS011;61687;56.232;43.854;2023-02-01T04:58:07;33.50;;;12.65;;
73452;SDS011;61687;56.232;43.854;2023-02-01T05:00:33;36.83;;;13.67;;
73452;SDS011;61687;56.232;43.854;2023-02-01T05:02:59;33.38;;;13.45;;
73452;SDS011;61687;56.232;43.854;2023-02-01T05:05:25;33.92;;;13.60;;
73452;SDS011;61687;56.232;43.854;2023-02-01T05:07:52;30.80;;;12.93;;
73452;SDS011;61687;56.232;43.854;2023-02-01T05:10:18;29.77;;;12.47;;
73452;SDS011;61687;56.232;43.854;2023-02-01T05:12:44;29.92;;;12.90;;
73452;SDS011;61687;56.232;43.854;2023-02-01T05:15:29;33.53;;;13.05;;
73452;SDS011;61687;56.232;43.854;2023-02-01T05:17:55;31.42;;;12.20;;
73452;SDS011;61687;56.232;43.854;2023-02-01T05:20:21;30.42;;;12.52;;
73452;SDS011;61687;56.232;43.854;2023-02-01T05:22:47;34.28;;;14.00;;
73452;SDS011;61687;56.232;43.854;2023-02-01T05:25:13;33.20;;;14.07;;
73452;SDS011;61687;56.232;43.854;2023-02-01T05:27:39;30.95;;;12.80;;
73452;SDS011;61687;56.232;43.854;2023-02-01T05:30:05;33.85;;;13.23;;
73452;SDS011;61687;56.232;43.854;2023-02-01T05:32:31;36.40;;;15.00;;
73452;SDS011;61687;56.232;43.854;2023-02-01T05:34:57;28.10;;;13.10;;
73452;SDS011;61687;56.232;43.854;2023-02-01T05:37:23;29.05;;;13.48;;
73452;SDS011;61687;56.232;43.854;2023-02-01T05:39:49;34.13;;;13.30;;
73452;SDS011;61687;56.232;43.854;2023-02-01T05:42:15;34.60;;;12.80;;
73452;SDS011;61687;56.232;43.854;2023-02-01T05:44:40;27.95;;;13.07;;
73452;SDS011;61687;56.232;43.854;2023-02-01T05:47:06;31.83;;;13.23;;
73452;SDS011;61687;56.232;43.854;2023-02-01T05:49:33;34.75;;;14.50;;
73452;SDS011;61687;56.232;43.854;2023-02-01T05:51:58;32.77;;;13.43;;
73452;SDS011;61687;56.232;43.854;2023-02-01T05:54:24;33.95;;;13.30;;
73452;SDS011;61687;56.232;43.854;2023-02-01T05:56:50;32.95;;;13.77;;
73452;SDS011;61687;56.232;43.854;2023-02-01T05:59:16;34.20;;;14.00;;
73452;SDS011;61687;56.232;43.854;2023-02-01T06:01:42;30.80;;;13.13;;
73452;SDS011;61687;56.232;43.854;2023-02-01T06:04:08;32.65;;;12.32;;
73452;SDS011;61687;56.232;43.854;2023-02-01T06:06:34;33.13;;;13.73;;
73452;SDS011;61687;56.232;43.854;2023-02-01T06:09:02;35.13;;;12.90;;
73452;SDS011;61687;56.232;43.854;2023-02-01T06:11:28;35.22;;;13.05;;
73452;SDS011;61687;56.232;43.854;2023-02-01T06:13:55;31.20;;;13.32;;
73452;SDS011;61687;56.232;43.854;2023-02-01T06:16:21;30.48;;;12.77;;
73452;SDS011;61687;56.232;43.854;2023-02-01T06:18:47;35.63;;;14.57;;
73452;SDS011;61687;56.232;43.854;2023-02-01T06:21:14;31.83;;;13.00;;
73452;SDS011;61687;56.232;43.854;2023-02-01T06:23:51;33.92;;;14.52;;
73452;SDS011;61687;56.232;43.854;2023-02-01T06:26:19;35.92;;;13.65;;
73452;SDS011;61687;56.232;43.854;2023-02-01T06:28:45;35.05;;;13.43;;
73452;SDS011;61687;56.232;43.854;2023-02-01T06:31:11;31.05;;;13.60;;
73452;SDS011;61687;56.232;43.854;2023-02-01T06:33:37;33.92;;;13.10;;
73452;SDS011;61687;56.232;43.854;2023-02-01T06:36:04;30.63;;;12.82;;
73452;SDS011;61687;56.232;43.854;2023-02-01T06:38:32;31.08;;;13.30;;
73452;SDS011;61687;56.232;43.854;2023-02-01T06:41:00;34.80;;;13.93;;
73452;SDS011;61687;56.232;43.854;2023-02-01T06:43:27;31.85;;;13.52;;
73452;SDS011;61687;56.232;43.854;2023-02-01T06:45:58;33.30;;;14.00;;
73452;SDS011;61687;56.232;43.854;2023-02-01T06:48:25;30.50;;;13.60;;
73452;SDS011;61687;56.232;43.854;2023-02-01T06:50:51;31.42;;;13.80;;
73452;SDS011;61687;56.232;43.854;2023-02-01T06:53:17;35.15;;;15.15;;
73452;SDS011;61687;56.232;43.854;2023-02-01T06:55:50;32.38;;;14.00;;
73452;SDS011;61687;56.232;43.854;2023-02-01T06:58:30;35.03;;;13.60;;
73452;SDS011;61687;56.232;43.854;2023-02-01T07:00:57;36.33;;;13.73;;
73452;SDS011;61687;56.232;43.854;2023-02-01T07:03:29;32.90;;;13.70;;
73452;SDS011;61687;56.232;43.854;2023-02-01T07:05:55;32.53;;;13.68;;
73452;SDS011;61687;56.232;43.854;2023-02-01T07:08:24;31.83;;;13.67;;
73452;SDS011;61687;56.232;43.854;2023-02-01T07:10:52;35.28;;;14.73;;
73452;SDS011;61687;56.232;43.854;2023-02-01T07:13:18;33.92;;;14.25;;
73452;SDS011;61687;56.232;43.854;2023-02-01T07:15:44;33.95;;;13.77;;
73452;SDS011;61687;56.232;43.854;2023-02-01T07:18:13;32.67;;;13.45;;
73452;SDS011;61687;56.232;43.854;2023-02-01T07:20:40;29.45;;;13.45;;
73452;SDS011;61687;56.232;43.854;2023-02-01T07:23:07;29.08;;;12.82;;
73452;SDS011;61687;56.232;43.854;2023-02-01T07:25:36;29.58;;;12.30;;
73452;SDS011;61687;56.232;43.854;2023-02-01T07:28:02;31.08;;;13.23;;
73452;SDS011;61687;56.232;43.854;2023-02-01T07:30:28;35.00;;;14.47;;
73452;SDS011;61687;56.232;43.854;2023-02-01T07:32:54;32.25;;;12.88;;
73452;SDS011;61687;56.232;43.854;2023-02-01T07:35:20;37.20;;;13.87;;
73452;SDS011;61687;56.232;43.854;2023-02-01T07:37:45;30.98;;;12.07;;
73452;SDS011;61687;56.232;43.854;2023-02-01T07:40:11;34.67;;;14.10;;
73452;SDS011;61687;56.232;43.854;2023-02-01T07:42:38;30.15;;;12.23;;
73452;SDS011;61687;56.232;43.854;2023-02-01T07:45:04;33.03;;;14.07;;
73452;SDS011;61687;56.232;43.854;2023-02-01T07:47:31;31.75;;;13.38;;
73452;SDS011;61687;56.232;43.854;2023-02-01T07:49:56;25.90;;;12.30;;
73452;SDS011;61687;56.232;43.854;2023-02-01T07:52:22;30.13;;;13.10;;
73452;SDS011;61687;56.232;43.854;2023-02-01T07:54:48;31.13;;;13.40;;
73452;SDS011;61687;56.232;43.854;2023-02-01T07:57:14;32.72;;;13.68;;
73452;SDS011;61687;56.232;43.854;2023-02-01T07:59:40;31.00;;;13.63;;
73452;SDS011;61687;56.232;43.854;2023-02-01T08:02:25;31.95;;;13.43;;
73452;SDS011;61687;56.232;43.854;2023-02-01T08:04:51;33.95;;;14.32;;
73452;SDS011;61687;56.232;43.854;2023-02-01T08:07:17;30.53;;;13.87;;
73452;SDS011;61687;56.232;43.854;2023-02-01T08:09:43;25.80;;;12.27;;
73452;SDS011;61687;56.232;43.854;2023-02-01T08:12:09;26.98;;;11.90;;
73452;SDS011;61687;56.232;43.854;2023-02-01T08:14:34;28.50;;;12.13;;
73452;SDS011;61687;56.232;43.854;2023-02-01T08:17:00;28.73;;;12.32;;
73452;SDS011;61687;56.232;43.854;2023-02-01T08:19:26;28.23;;;11.80;;
73452;SDS011;61687;56.232;43.854;2023-02-01T08:21:52;26.80;;;11.52;;
73452;SDS011;61687;56.232;43.854;2023-02-01T08:24:18;24.65;;;11.32;;
73452;SDS011;61687;56.232;43.854;2023-02-01T08:26:43;31.20;;;11.77;;
73452;SDS011;61687;56.232;43.854;2023-02-01T08:29:09;28.10;;;12.13;;
73452;SDS011;61687;56.232;43.854;2023-02-01T08:31:37;26.43;;;12.17;;
73452;SDS011;61687;56.232;43.854;2023-02-01T08:34:06;37.05;;;16.45;;
73452;SDS011;61687;56.232;43.854;2023-02-01T08:36:33;31.98;;;13.10;;
73452;SDS011;61687;56.232;43.854;2023-02-01T08:38:59;27.20;;;11.60;;
73452;SDS011;61687;56.232;43.854;2023-02-01T08:41:27;25.83;;;11.98;;
73452;SDS011;61687;56.232;43.854;2023-02-01T08:43:54;32.00;;;12.57;;
73452;SDS011;61687;56.232;43.854;2023-02-01T08:46:21;26.75;;;11.77;;
73452;SDS011;61687;56.232;43.854;2023-02-01T08:48:48;30.45;;;12.90;;
73452;SDS011;61687;56.232;43.854;2023-02-01T08:51:15;28.60;;;12.13;;
73452;SDS011;61687;56.232;43.854;2023-02-01T08:53:43;32.13;;;13.45;;
73452;SDS011;61687;56.232;43.854;2023-02-01T08:56:10;30.33;;;13.03;;
73452;SDS011;61687;56.232;43.854;2023-02-01T08:58:37;28.02;;;12.20;;
73452;SDS011;61687;56.232;43.854;2023-02-01T09:01:05;26.90;;;12.30;;
73452;SDS011;61687;56.232;43.854;2023-02-01T09:03:32;28.67;;;11.75;;
73452;SDS011;61687;56.232;43.854;2023-02-01T09:06:01;31.30;;;13.73;;
73452;SDS011;61687;56.232;43.854;2023-02-01T09:08:29;32.15;;;13.10;;
73452;SDS011;61687;56.232;43.854;2023-02-01T09:10:58;30.27;;;13.65;;
73452;SDS011;61687;56.232;43.854;2023-02-01T09:13:25;28.45;;;12.13;;
73452;SDS011;61687;56.232;43.854;2023-02-01T09:15:51;26.85;;;13.02;;
73452;SDS011;61687;56.232;43.854;2023-02-01T09:18:17;29.57;;;13.37;;
73452;SDS011;61687;56.232;43.854;2023-02-01T09:20:43;29.70;;;12.82;;
73452;SDS011;61687;56.232;43.854;2023-02-01T09:23:09;30.90;;;13.37;;
73452;SDS011;61687;56.232;43.854;2023-02-01T09:25:36;34.28;;;12.95;;
73452;SDS011;61687;56.232;43.854;2023-02-01T09:28:03;31.13;;;13.18;;
73452;SDS011;61687;56.232;43.854;2023-02-01T09:30:32;33.40;;;13.70;;
73452;SDS011;61687;56.232;43.854;2023-02-01T09:32:58;29.63;;;12.30;;
73452;SDS011;61687;56.232;43.854;2023-02-01T09:35:24;32.35;;;12.88;;
73452;SDS011;61687;56.232;43.854;2023-02-01T09:37:49;28.63;;;12.70;;
73452;SDS011;61687;56.232;43.854;2023-02-01T09:40:17;28.08;;;12.70;;
73452;SDS011;61687;56.232;43.854;2023-02-01T09:48:24;31.65;;;13.18;;
73452;SDS011;61687;56.232;43.854;2023-02-01T09:50:56;32.05;;;13.20;;
73452;SDS011;61687;56.232;43.854;2023-02-01T09:53:27;32.15;;;13.23;;
73452;SDS011;61687;56.232;43.854;2023-02-01T09:56:09;33.43;;;12.90;;
73452;SDS011;61687;56.232;43.854;2023-02-01T09:58:40;32.45;;;13.25;;
73452;SDS011;61687;56.232;43.854;2023-02-01T10:01:17;32.72;;;13.57;;
73452;SDS011;61687;56.232;43.854;2023-02-01T10:03:49;31.88;;;12.90;;
73452;SDS011;61687;56.232;43.854;2023-02-01T10:06:24;30.80;;;12.70;;
73452;SDS011;61687;56.232;43.854;2023-02-01T10:16:56;31.67;;;12.70;;
73452;SDS011;61687;56.232;43.854;2023-02-01T10:22:42;34.90;;;13.47;;
73452;SDS011;61687;56.232;43.854;2023-02-01T10:25:15;34.78;;;13.82;;
73452;SDS011;61687;56.232;43.854;2023-02-01T10:27:49;32.42;;;14.10;;
73452;SDS011;61687;56.232;43.854;2023-02-01T10:30:22;35.55;;;12.25;;
73452;SDS011;61687;56.232;43.854;2023-02-01T10:32:57;35.17;;;13.63;;
73452;SDS011;61687;56.232;43.854;2023-02-01T10:35:39;33.80;;;13.00;;
73452;SDS011;61687;56.232;43.854;2023-02-01T10:38:10;33.33;;;13.60;;
73452;SDS011;61687;56.232;43.854;2023-02-01T10:40:52;34.58;;;13.65;;
73452;SDS011;61687;56.232;43.854;2023-02-01T10:43:23;30.42;;;12.82;;
73452;SDS011;61687;56.232;43.854;2023-02-01T10:45:49;31.50;;;13.40;;
73452;SDS011;61687;56.232;43.854;2023-02-01T10:48:15;32.63;;;12.77;;
73452;SDS011;61687;56.232;43.854;2023-02-01T10:50:46;32.92;;;12.63;;
73452;SDS011;61687;56.232;43.854;2023-02-01T10:53:24;34.55;;;12.65;;
73452;SDS011;61687;56.232;43.854;2023-02-01T10:55:55;30.27;;;12.60;;
73452;SDS011;61687;56.232;43.854;2023-02-01T10:58:31;32.13;;;13.07;;
73452;SDS011;61687;56.232;43.854;2023-02-01T11:01:02;30.75;;;13.40;;
73452;SDS011;61687;56.232;43.854;2023-02-01T11:06:36;29.27;;;11.85;;
73452;SDS011;61687;56.232;43.854;2023-02-01T11:11:35;34.40;;;14.60;;
73452;SDS011;61687;56.232;43.854;2023-02-01T11:14:34;31.35;;;13.50;;
73452;SDS011;61687;56.232;43.854;2023-02-01T11:19:44;32.20;;;12.93;;
73452;SDS011;61687;56.232;43.854;2023-02-01T11:22:11;37.50;;;13.73;;
73452;SDS011;61687;56.232;43.854;2023-02-01T11:24:39;31.58;;;13.38;;
73452;SDS011;61687;56.232;43.854;2023-02-01T11:27:16;34.42;;;13.77;;
73452;SDS011;61687;56.232;43.854;2023-02-01T11:29:46;32.47;;;13.93;;
73452;SDS011;61687;56.232;43.854;2023-02-01T11:32:16;33.42;;;13.55;;
73452;SDS011;61687;56.232;43.854;2023-02-01T11:34:49;32.67;;;13.80;;
73452;SDS011;61687;56.232;43.854;2023-02-01T11:37:32;38.25;;;14.52;;
73452;SDS011;61687;56.232;43.854;2023-02-01T11:40:22;33.80;;;13.95;;
73452;SDS011;61687;56.232;43.854;2023-02-01T11:42:55;32.33;;;14.07;;
73452;SDS011;61687;56.232;43.854;2023-02-01T11:47:57;31.27;;;14.23;;
73452;SDS011;61687;56.232;43.854;2023-02-01T11:50:36;36.72;;;14.98;;
73452;SDS011;61687;56.232;43.854;2023-02-01T12:04:50;36.20;;;14.88;;
73452;SDS011;61687;56.232;43.854;2023-02-01T12:09:58;33.22;;;14.00;;
73452;SDS011;61687;56.232;43.854;2023-02-01T12:13:28;34.75;;;14.38;;
73452;SDS011;61687;56.232;43.854;2023-02-01T12:15:40;34.63;;;14.98;;
73452;SDS011;61687;56.232;43.854;2023-02-01T12:26:46;38.00;;;15.07;;
73452;SDS011;61687;56.232;43.854;2023-02-01T12:34:54;39.30;;;13.60;;
73452;SDS011;61687;56.232;43.854;2023-02-01T12:40:15;41.47;;;15.52;;
73452;SDS011;61687;56.232;43.854;2023-02-01T12:45:55;40.67;;;16.23;;
73452;SDS011;61687;56.232;43.854;2023-02-01T12:51:13;48.00;;;16.17;;
73452;SDS011;61687;56.232;43.854;2023-02-01T12:53:50;41.55;;;15.90;;
73452;SDS011;61687;56.232;43.854;2023-02-01T12:56:25;37.05;;;14.55;;
73452;SDS011;61687;56.232;43.854;2023-02-01T12:58:57;39.75;;;16.30;;
73452;SDS011;61687;56.232;43.854;2023-02-01T13:04:20;47.55;;;15.57;;
73452;SDS011;61687;56.232;43.854;2023-02-01T13:06:56;43.22;;;16.25;;
73452;SDS011;61687;56.232;43.854;2023-02-01T13:12:00;45.95;;;16.45;;
73452;SDS011;61687;56.232;43.854;2023-02-01T13:17:26;42.83;;;16.70;;
73452;SDS011;61687;56.232;43.854;2023-02-01T13:22:37;45.00;;;15.95;;
73452;SDS011;61687;56.232;43.854;2023-02-01T13:27:41;41.90;;;16.97;;
73452;SDS011;61687;56.232;43.854;2023-02-01T13:40:42;38.73;;;14.23;;
73452;SDS011;61687;56.232;43.854;2023-02-01T13:43:25;41.28;;;15.55;;
73452;SDS011;61687;56.232;43.854;2023-02-01T13:46:01;41.65;;;16.33;;
73452;SDS011;61687;56.232;43.854;2023-02-01T13:51:40;44.10;;;16.10;;
73452;SDS011;61687;56.232;43.854;2023-02-01T13:56:55;41.83;;;16.38;;
73452;SDS011;61687;56.232;43.854;2023-02-01T14:07:34;46.63;;;16.90;;
73452;SDS011;61687;56.232;43.854;2023-02-01T14:23:40;44.38;;;16.80;;
73452;SDS011;61687;56.232;43.854;2023-02-01T14:26:09;46.03;;;18.02;;
73452;SDS011;61687;56.232;43.854;2023-02-01T14:28:42;47.20;;;17.50;;
73452;SDS011;61687;56.232;43.854;2023-02-01T14:31:22;45.45;;;17.27;;
73452;SDS011;61687;56.232;43.854;2023-02-01T14:33:55;48.25;;;17.85;;
73452;SDS011;61687;56.232;43.854;2023-02-01T14:36:24;48.38;;;16.88;;
73452;SDS011;61687;56.232;43.854;2023-02-01T14:38:50;45.95;;;17.30;;
73452;SDS011;61687;56.232;43.854;2023-02-01T14:49:35;46.22;;;17.15;;
73452;SDS011;61687;56.232;43.854;2023-02-01T14:52:50;48.28;;;18.55;;
73452;SDS011;61687;56.232;43.854;2023-02-01T14:58:27;46.78;;;17.13;;
73452;SDS011;61687;56.232;43.854;2023-02-01T15:01:05;51.00;;;17.23;;
73452;SDS011;61687;56.232;43.854;2023-02-01T15:09:09;48.00;;;18.03;;
73452;SDS011;61687;56.232;43.854;2023-02-01T15:14:23;50.22;;;17.30;;
73452;SDS011;61687;56.232;43.854;2023-02-01T15:16:50;48.30;;;17.92;;
73452;SDS011;61687;56.232;43.854;2023-02-01T15:19:23;49.05;;;18.42;;
73452;SDS011;61687;56.232;43.854;2023-02-01T15:21:52;50.60;;;17.70;;
73452;SDS011;61687;56.232;43.854;2023-02-01T15:24:24;51.97;;;18.63;;
73452;SDS011;61687;56.232;43.854;2023-02-01T15:26:52;55.10;;;19.17;;
73452;SDS011;61687;56.232;43.854;2023-02-01T15:29:20;47.28;;;18.20;;
73452;SDS011;61687;56.232;43.854;2023-02-01T15:31:51;49.92;;;18.15;;
73452;SDS011;61687;56.232;43.854;2023-02-01T15:34:18;50.93;;;17.10;;
73452;SDS011;61687;56.232;43.854;2023-02-01T15:36:44;52.25;;;18.80;;
73452;SDS011;61687;56.232;43.854;2023-02-01T15:39:12;50.83;;;18.15;;
73452;SDS011;61687;56.232;43.854;2023-02-01T15:41:55;48.30;;;16.42;;
73452;SDS011;61687;56.232;43.854;2023-02-01T15:47:24;48.20;;;15.67;;
73452;SDS011;61687;56.232;43.854;2023-02-01T15:49:54;48.45;;;17.52;;
73452;SDS011;61687;56.232;43.854;2023-02-01T15:52:36;54.53;;;18.90;;
73452;SDS011;61687;56.232;43.854;2023-02-01T15:55:05;48.50;;;18.05;;
73452;SDS011;61687;56.232;43.854;2023-02-01T15:57:35;48.58;;;18.58;;
73452;SDS011;61687;56.232;43.854;2023-02-01T16:00:26;53.70;;;18.40;;
73452;SDS011;61687;56.232;43.854;2023-02-01T16:03:00;50.42;;;18.52;;
73452;SDS011;61687;56.232;43.854;2023-02-01T16:08:17;49.40;;;17.38;;
73452;SDS011;61687;56.232;43.854;2023-02-01T16:10:48;47.03;;;17.40;;
73452;SDS011;61687;56.232;43.854;2023-02-01T16:13:16;48.30;;;16.83;;
73452;SDS011;61687;56.232;43.854;2023-02-01T16:15:43;48.95;;;19.10;;
73452;SDS011;61687;56.232;43.854;2023-02-01T16:18:10;46.90;;;17.92;;
73452;SDS011;61687;56.232;43.854;2023-02-01T16:20:37;44.70;;;16.98;;
73452;SDS011;61687;56.232;43.854;2023-02-01T16:23:05;50.05;;;19.58;;
73452;SDS011;61687;56.232;43.854;2023-02-01T16:25:31;52.63;;;19.17;;
73452;SDS011;61687;56.232;43.854;2023-02-01T16:27:57;44.83;;;18.55;;
73452;SDS011;61687;56.232;43.854;2023-02-01T16:30:23;50.28;;;19.75;;
73452;SDS011;61687;56.232;43.854;2023-02-01T16:32:56;47.92;;;18.92;;
73452;SDS011;61687;56.232;43.854;2023-02-01T16:35:28;47.22;;;18.52;;
73452;SDS011;61687;56.232;43.854;2023-02-01T16:38:01;51.33;;;19.90;;
73452;SDS011;61687;56.232;43.854;2023-02-01T16:40:38;48.28;;;18.33;;
73452;SDS011;61687;56.232;43.854;2023-02-01T16:43:16;45.58;;;18.63;;
73452;SDS011;61687;56.232;43.854;2023-02-01T16:45:47;48.63;;;19.10;;
73452;SDS011;61687;56.232;43.854;2023-02-01T16:50:56;47.83;;;18.33;;
73452;SDS011;61687;56.232;43.854;2023-02-01T16:53:23;55.45;;;20.60;;
73452;SDS011;61687;56.232;43.854;2023-02-01T16:55:50;50.03;;;19.52;;
73452;SDS011;61687;56.232;43.854;2023-02-01T16:58:18;50.28;;;19.27;;
73452;SDS011;61687;56.232;43.854;2023-02-01T17:00:45;50.15;;;19.02;;
73452;SDS011;61687;56.232;43.854;2023-02-01T17:03:12;53.35;;;19.40;;
73452;SDS011;61687;56.232;43.854;2023-02-01T17:05:43;53.22;;;20.15;;
73452;SDS011;61687;56.232;43.854;2023-02-01T17:08:12;54.03;;;20.75;;
73452;SDS011;61687;56.232;43.854;2023-02-01T17:10:41;54.38;;;21.27;;
73452;SDS011;61687;56.232;43.854;2023-02-01T17:13:12;57.13;;;20.70;;
73452;SDS011;61687;56.232;43.854;2023-02-01T17:15:39;51.50;;;20.55;;
73452;SDS011;61687;56.232;43.854;2023-02-01T17:18:14;54.47;;;20.10;;
73452;SDS011;61687;56.232;43.854;2023-02-01T17:20:42;54.10;;;20.30;;
73452;SDS011;61687;56.232;43.854;2023-02-01T17:23:08;53.03;;;20.27;;
73452;SDS011;61687;56.232;43.854;2023-02-01T17:25:35;56.17;;;20.30;;
73452;SDS011;61687;56.232;43.854;2023-02-01T17:28:01;56.50;;;21.83;;
73452;SDS011;61687;56.232;43.854;2023-02-01T17:30:27;51.85;;;19.40;;